sensor_id;sensor_type;location;lat;lon;timestamp;P1;durP1;ratioP1;P2;durP2;ratioP2
21786;SDS011;11055;50.870;4.316;2023-04-06T00:01:35;17.38;;;11.50;;
21786;SDS011;11055;50.870;4.316;2023-04-06T00:04:01;15.80;;;11.75;;
21786;SDS011;11055;50.870;4.316;2023-04-06T00:06:26;16.45;;;12.00;;
21786;SDS011;11055;50.870;4.316;2023-04-06T00:08:52;17.35;;;12.20;;
21786;SDS011;11055;50.870;4.316;2023-04-06T00:11:18;20.10;;;12.32;;
21786;SDS011;11055;50.870;4.316;2023-04-06T00:13:44;18.73;;;12.18;;
21786;SDS011;11055;50.870;4.316;2023-04-06T00:16:10;21.65;;;13.48;;
21786;SDS011;11055;50.870;4.316;2023-04-06T00:18:36;21.27;;;13.32;;
21786;SDS011;11055;50.870;4.316;2023-04-06T00:21:01;20.50;;;13.02;;
21786;SDS011;11055;50.870;4.316;2023-04-06T00:23:28;20.60;;;12.10;;
21786;SDS011;11055;50.870;4.316;2023-04-06T00:25:53;17.63;;;12.00;;
21786;SDS011;11055;50.870;4.316;2023-04-06T00:28:20;21.38;;;13.07;;
21786;SDS011;11055;50.870;4.316;2023-04-06T00:30:50;17.92;;;12.45;;
21786;SDS011;11055;50.870;4.316;2023-04-06T00:33:17;16.58;;;11.68;;
21786;SDS011;11055;50.870;4.316;2023-04-06T00:35:44;15.77;;;11.63;;
21786;SDS011;11055;50.870;4.316;2023-04-06T00:38:10;19.05;;;12.35;;
21786;SDS011;11055;50.870;4.316;2023-04-06T00:40:36;20.65;;;12.43;;
21786;SDS011;11055;50.870;4.316;2023-04-06T00:43:02;19.05;;;12.65;;
21786;SDS011;11055;50.870;4.316;2023-04-06T00:45:28;18.55;;;12.77;;
21786;SDS011;11055;50.870;4.316;2023-04-06T00:47:53;17.73;;;11.82;;
21786;SDS011;11055;50.870;4.316;2023-04-06T00:50:19;17.42;;;12.25;;
21786;SDS011;11055;50.870;4.316;2023-04-06T00:52:45;17.77;;;12.13;;
21786;SDS011;11055;50.870;4.316;2023-04-06T00:55:10;20.27;;;12.43;;
21786;SDS011;11055;50.870;4.316;2023-04-06T00:57:36;18.60;;;12.00;;
21786;SDS011;11055;50.870;4.316;2023-04-06T01:00:02;20.08;;;13.30;;
21786;SDS011;11055;50.870;4.316;2023-04-06T01:02:28;18.08;;;13.48;;
21786;SDS011;11055;50.870;4.316;2023-04-06T01:04:54;18.27;;;12.65;;
21786;SDS011;11055;50.870;4.316;2023-04-06T01:07:20;17.73;;;12.68;;
21786;SDS011;11055;50.870;4.316;2023-04-06T01:09:46;18.88;;;12.50;;
21786;SDS011;11055;50.870;4.316;2023-04-06T01:12:12;19.45;;;12.75;;
21786;SDS011;11055;50.870;4.316;2023-04-06T01:14:37;20.58;;;13.07;;
21786;SDS011;11055;50.870;4.316;2023-04-06T01:17:03;18.83;;;12.73;;
21786;SDS011;11055;50.870;4.316;2023-04-06T01:19:29;18.42;;;11.90;;
21786;SDS011;11055;50.870;4.316;2023-04-06T01:21:54;17.77;;;12.95;;
21786;SDS011;11055;50.870;4.316;2023-04-06T01:24:20;20.65;;;13.25;;
21786;SDS011;11055;50.870;4.316;2023-04-06T01:26:47;21.40;;;13.48;;
21786;SDS011;11055;50.870;4.316;2023-04-06T01:29:12;17.83;;;12.15;;
21786;SDS011;11055;50.870;4.316;2023-04-06T01:31:38;19.10;;;12.85;;
21786;SDS011;11055;50.870;4.316;2023-04-06T01:34:05;20.45;;;12.55;;
21786;SDS011;11055;50.870;4.316;2023-04-06T01:36:31;19.55;;;12.85;;
21786;SDS011;11055;50.870;4.316;2023-04-06T01:38:56;20.58;;;12.65;;
21786;SDS011;11055;50.870;4.316;2023-04-06T01:41:22;21.83;;;12.77;;
21786;SDS011;11055;50.870;4.316;2023-04-06T01:43:48;17.50;;;12.43;;
21786;SDS011;11055;50.870;4.316;2023-04-06T01:46:14;21.42;;;12.15;;
21786;SDS011;11055;50.870;4.316;2023-04-06T01:48:41;17.73;;;12.48;;
21786;SDS011;11055;50.870;4.316;2023-04-06T01:51:07;18.73;;;13.00;;
21786;SDS011;11055;50.870;4.316;2023-04-06T01:53:32;18.15;;;12.30;;
21786;SDS011;11055;50.870;4.316;2023-04-06T01:55:58;18.08;;;12.02;;
21786;SDS011;11055;50.870;4.316;2023-04-06T01:58:24;19.55;;;12.48;;
21786;SDS011;11055;50.870;4.316;2023-04-06T02:00:50;20.13;;;12.20;;
21786;SDS011;11055;50.870;4.316;2023-04-06T02:03:16;20.25;;;12.25;;
21786;SDS011;11055;50.870;4.316;2023-04-06T02:05:41;18.77;;;13.18;;
21786;SDS011;11055;50.870;4.316;2023-04-06T02:08:07;18.55;;;12.43;;
21786;SDS011;11055;50.870;4.316;2023-04-06T02:10:33;17.60;;;11.88;;
21786;SDS011;11055;50.870;4.316;2023-04-06T02:13:00;15.60;;;11.27;;
21786;SDS011;11055;50.870;4.316;2023-04-06T02:15:26;18.13;;;12.77;;
21786;SDS011;11055;50.870;4.316;2023-04-06T02:17:52;23.23;;;13.00;;
21786;SDS011;11055;50.870;4.316;2023-04-06T02:20:18;19.90;;;13.25;;
21786;SDS011;11055;50.870;4.316;2023-04-06T02:22:44;18.80;;;12.48;;
21786;SDS011;11055;50.870;4.316;2023-04-06T02:25:10;18.88;;;12.18;;
21786;SDS011;11055;50.870;4.316;2023-04-06T02:27:36;17.55;;;12.00;;
21786;SDS011;11055;50.870;4.316;2023-04-06T02:30:03;21.27;;;12.50;;
21786;SDS011;11055;50.870;4.316;2023-04-06T02:32:29;20.40;;;12.77;;
21786;SDS011;11055;50.870;4.316;2023-04-06T02:34:55;19.25;;;13.38;;
21786;SDS011;11055;50.870;4.316;2023-04-06T02:37:20;17.05;;;11.98;;
21786;SDS011;11055;50.870;4.316;2023-04-06T02:39:48;19.63;;;12.45;;
21786;SDS011;11055;50.870;4.316;2023-04-06T02:42:13;20.13;;;12.63;;
21786;SDS011;11055;50.870;4.316;2023-04-06T02:44:40;19.25;;;11.60;;
21786;SDS011;11055;50.870;4.316;2023-04-06T02:47:06;18.23;;;12.15;;
21786;SDS011;11055;50.870;4.316;2023-04-06T02:49:32;18.27;;;12.98;;
21786;SDS011;11055;50.870;4.316;2023-04-06T02:51:58;17.05;;;12.82;;
21786;SDS011;11055;50.870;4.316;2023-04-06T02:54:23;16.42;;;12.27;;
21786;SDS011;11055;50.870;4.316;2023-04-06T02:56:49;20.55;;;12.05;;
21786;SDS011;11055;50.870;4.316;2023-04-06T02:59:15;18.75;;;12.25;;
21786;SDS011;11055;50.870;4.316;2023-04-06T03:01:40;21.83;;;12.90;;
21786;SDS011;11055;50.870;4.316;2023-04-06T03:04:06;23.27;;;13.90;;
21786;SDS011;11055;50.870;4.316;2023-04-06T03:06:32;18.50;;;11.68;;
21786;SDS011;11055;50.870;4.316;2023-04-06T03:08:57;20.00;;;12.30;;
21786;SDS011;11055;50.870;4.316;2023-04-06T03:11:23;18.02;;;11.98;;
21786;SDS011;11055;50.870;4.316;2023-04-06T03:13:50;17.23;;;12.55;;
21786;SDS011;11055;50.870;4.316;2023-04-06T03:16:16;18.52;;;12.40;;
21786;SDS011;11055;50.870;4.316;2023-04-06T03:18:41;20.05;;;12.20;;
21786;SDS011;11055;50.870;4.316;2023-04-06T03:21:09;16.63;;;11.65;;
21786;SDS011;11055;50.870;4.316;2023-04-06T03:23:35;17.60;;;12.52;;
21786;SDS011;11055;50.870;4.316;2023-04-06T03:26:01;19.63;;;13.55;;
21786;SDS011;11055;50.870;4.316;2023-04-06T03:28:27;17.13;;;11.85;;
21786;SDS011;11055;50.870;4.316;2023-04-06T03:30:53;19.65;;;12.52;;
21786;SDS011;11055;50.870;4.316;2023-04-06T03:33:19;18.98;;;13.48;;
21786;SDS011;11055;50.870;4.316;2023-04-06T03:35:45;17.55;;;12.75;;
21786;SDS011;11055;50.870;4.316;2023-04-06T03:38:10;19.23;;;12.02;;
21786;SDS011;11055;50.870;4.316;2023-04-06T03:40:36;17.80;;;12.23;;
21786;SDS011;11055;50.870;4.316;2023-04-06T03:43:02;20.33;;;12.13;;
21786;SDS011;11055;50.870;4.316;2023-04-06T03:45:28;18.58;;;12.20;;
21786;SDS011;11055;50.870;4.316;2023-04-06T03:47:54;18.90;;;13.05;;
21786;SDS011;11055;50.870;4.316;2023-04-06T03:50:20;16.70;;;12.30;;
21786;SDS011;11055;50.870;4.316;2023-04-06T03:52:45;22.05;;;14.00;;
21786;SDS011;11055;50.870;4.316;2023-04-06T03:55:11;19.27;;;13.18;;
21786;SDS011;11055;50.870;4.316;2023-04-06T03:57:37;20.90;;;12.63;;
21786;SDS011;11055;50.870;4.316;2023-04-06T04:00:03;20.02;;;12.68;;
21786;SDS011;11055;50.870;4.316;2023-04-06T04:02:29;22.40;;;14.07;;
21786;SDS011;11055;50.870;4.316;2023-04-06T04:04:54;19.00;;;12.95;;
21786;SDS011;11055;50.870;4.316;2023-04-06T04:07:20;21.20;;;13.15;;
21786;SDS011;11055;50.870;4.316;2023-04-06T04:09:46;19.88;;;12.55;;
21786;SDS011;11055;50.870;4.316;2023-04-06T04:12:11;20.85;;;13.32;;
21786;SDS011;11055;50.870;4.316;2023-04-06T04:14:39;21.58;;;13.55;;
21786;SDS011;11055;50.870;4.316;2023-04-06T04:17:05;21.30;;;13.10;;
21786;SDS011;11055;50.870;4.316;2023-04-06T04:19:30;20.48;;;12.93;;
21786;SDS011;11055;50.870;4.316;2023-04-06T04:21:56;19.23;;;13.07;;
21786;SDS011;11055;50.870;4.316;2023-04-06T04:24:22;17.63;;;13.00;;
21786;SDS011;11055;50.870;4.316;2023-04-06T04:26:47;20.85;;;14.43;;
21786;SDS011;11055;50.870;4.316;2023-04-06T04:29:13;19.92;;;13.70;;
21786;SDS011;11055;50.870;4.316;2023-04-06T04:31:39;21.20;;;13.88;;
21786;SDS011;11055;50.870;4.316;2023-04-06T04:34:05;20.50;;;13.30;;
21786;SDS011;11055;50.870;4.316;2023-04-06T04:36:31;17.63;;;13.57;;
21786;SDS011;11055;50.870;4.316;2023-04-06T04:38:57;17.50;;;14.00;;
21786;SDS011;11055;50.870;4.316;2023-04-06T04:41:26;19.85;;;13.40;;
21786;SDS011;11055;50.870;4.316;2023-04-06T04:43:51;18.65;;;13.60;;
21786;SDS011;11055;50.870;4.316;2023-04-06T04:46:17;18.45;;;13.82;;
21786;SDS011;11055;50.870;4.316;2023-04-06T04:48:42;17.85;;;13.45;;
21786;SDS011;11055;50.870;4.316;2023-04-06T04:51:08;19.25;;;13.88;;
21786;SDS011;11055;50.870;4.316;2023-04-06T04:53:34;21.52;;;15.25;;
21786;SDS011;11055;50.870;4.316;2023-04-06T04:56:00;20.05;;;13.73;;
21786;SDS011;11055;50.870;4.316;2023-04-06T04:58:25;21.38;;;14.20;;
21786;SDS011;11055;50.870;4.316;2023-04-06T05:00:51;18.42;;;13.65;;
21786;SDS011;11055;50.870;4.316;2023-04-06T05:03:21;15.88;;;13.35;;
21786;SDS011;11055;50.870;4.316;2023-04-06T05:05:48;18.17;;;14.55;;
21786;SDS011;11055;50.870;4.316;2023-04-06T05:08:14;19.08;;;14.43;;
21786;SDS011;11055;50.870;4.316;2023-04-06T05:10:40;21.02;;;15.25;;
21786;SDS011;11055;50.870;4.316;2023-04-06T05:13:06;23.17;;;14.93;;
21786;SDS011;11055;50.870;4.316;2023-04-06T05:15:32;24.95;;;15.70;;
21786;SDS011;11055;50.870;4.316;2023-04-06T05:18:00;23.27;;;15.88;;
21786;SDS011;11055;50.870;4.316;2023-04-06T05:20:26;23.17;;;15.48;;
21786;SDS011;11055;50.870;4.316;2023-04-06T05:22:52;21.05;;;15.40;;
21786;SDS011;11055;50.870;4.316;2023-04-06T05:25:18;20.83;;;15.43;;
21786;SDS011;11055;50.870;4.316;2023-04-06T05:27:44;22.05;;;15.30;;
21786;SDS011;11055;50.870;4.316;2023-04-06T05:30:10;22.90;;;16.67;;
21786;SDS011;11055;50.870;4.316;2023-04-06T05:32:36;24.02;;;17.83;;
21786;SDS011;11055;50.870;4.316;2023-04-06T05:35:01;23.17;;;17.13;;
21786;SDS011;11055;50.870;4.316;2023-04-06T05:37:27;26.08;;;19.85;;
21786;SDS011;11055;50.870;4.316;2023-04-06T05:39:53;25.30;;;17.42;;
21786;SDS011;11055;50.870;4.316;2023-04-06T05:42:18;23.15;;;17.50;;
21786;SDS011;11055;50.870;4.316;2023-04-06T05:44:44;23.67;;;16.40;;
21786;SDS011;11055;50.870;4.316;2023-04-06T05:47:10;21.55;;;16.30;;
21786;SDS011;11055;50.870;4.316;2023-04-06T05:49:36;24.50;;;18.23;;
21786;SDS011;11055;50.870;4.316;2023-04-06T05:52:01;21.13;;;16.05;;
21786;SDS011;11055;50.870;4.316;2023-04-06T05:54:27;27.05;;;17.83;;
21786;SDS011;11055;50.870;4.316;2023-04-06T05:56:53;21.52;;;16.45;;
21786;SDS011;11055;50.870;4.316;2023-04-06T05:59:18;24.20;;;17.73;;
21786;SDS011;11055;50.870;4.316;2023-04-06T06:01:45;21.98;;;16.92;;
21786;SDS011;11055;50.870;4.316;2023-04-06T06:04:11;24.70;;;18.58;;
21786;SDS011;11055;50.870;4.316;2023-04-06T06:06:36;24.40;;;18.60;;
21786;SDS011;11055;50.870;4.316;2023-04-06T06:09:02;23.45;;;18.65;;
21786;SDS011;11055;50.870;4.316;2023-04-06T06:11:28;27.30;;;20.02;;
21786;SDS011;11055;50.870;4.316;2023-04-06T06:13:54;29.70;;;22.42;;
21786;SDS011;11055;50.870;4.316;2023-04-06T06:16:20;30.85;;;23.35;;
21786;SDS011;11055;50.870;4.316;2023-04-06T06:18:46;26.67;;;20.23;;
21786;SDS011;11055;50.870;4.316;2023-04-06T06:21:12;28.10;;;20.48;;
21786;SDS011;11055;50.870;4.316;2023-04-06T06:23:38;25.13;;;19.63;;
21786;SDS011;11055;50.870;4.316;2023-04-06T06:26:04;23.10;;;17.80;;
21786;SDS011;11055;50.870;4.316;2023-04-06T06:28:30;32.25;;;19.08;;
21786;SDS011;11055;50.870;4.316;2023-04-06T06:30:56;29.02;;;20.58;;
21786;SDS011;11055;50.870;4.316;2023-04-06T06:33:23;27.05;;;19.77;;
21786;SDS011;11055;50.870;4.316;2023-04-06T06:35:51;24.70;;;18.08;;
21786;SDS011;11055;50.870;4.316;2023-04-06T06:38:18;25.23;;;18.08;;
21786;SDS011;11055;50.870;4.316;2023-04-06T06:40:44;27.25;;;17.95;;
21786;SDS011;11055;50.870;4.316;2023-04-06T06:43:10;25.48;;;19.17;;
21786;SDS011;11055;50.870;4.316;2023-04-06T06:45:36;30.10;;;20.15;;
21786;SDS011;11055;50.870;4.316;2023-04-06T06:48:02;27.65;;;20.10;;
21786;SDS011;11055;50.870;4.316;2023-04-06T06:50:28;24.33;;;18.73;;
21786;SDS011;11055;50.870;4.316;2023-04-06T06:52:53;30.75;;;21.20;;
21786;SDS011;11055;50.870;4.316;2023-04-06T06:55:19;26.92;;;19.77;;
21786;SDS011;11055;50.870;4.316;2023-04-06T06:57:45;29.88;;;20.75;;
21786;SDS011;11055;50.870;4.316;2023-04-06T07:00:13;31.98;;;20.13;;
21786;SDS011;11055;50.870;4.316;2023-04-06T07:02:39;24.23;;;17.83;;
21786;SDS011;11055;50.870;4.316;2023-04-06T07:05:05;27.73;;;16.83;;
21786;SDS011;11055;50.870;4.316;2023-04-06T07:07:31;23.60;;;17.20;;
21786;SDS011;11055;50.870;4.316;2023-04-06T07:09:58;25.75;;;19.63;;
21786;SDS011;11055;50.870;4.316;2023-04-06T07:12:24;21.90;;;16.95;;
21786;SDS011;11055;50.870;4.316;2023-04-06T07:14:50;25.13;;;17.65;;
21786;SDS011;11055;50.870;4.316;2023-04-06T07:17:16;23.02;;;17.50;;
21786;SDS011;11055;50.870;4.316;2023-04-06T07:19:41;32.45;;;18.30;;
21786;SDS011;11055;50.870;4.316;2023-04-06T07:22:07;27.05;;;17.65;;
21786;SDS011;11055;50.870;4.316;2023-04-06T07:24:33;28.38;;;17.42;;
21786;SDS011;11055;50.870;4.316;2023-04-06T07:26:59;24.38;;;15.63;;
21786;SDS011;11055;50.870;4.316;2023-04-06T07:29:27;22.95;;;16.25;;
21786;SDS011;11055;50.870;4.316;2023-04-06T07:31:54;18.92;;;14.40;;
21786;SDS011;11055;50.870;4.316;2023-04-06T07:34:20;21.60;;;15.23;;
21786;SDS011;11055;50.870;4.316;2023-04-06T07:36:46;27.27;;;17.00;;
21786;SDS011;11055;50.870;4.316;2023-04-06T07:39:11;22.23;;;14.70;;
21786;SDS011;11055;50.870;4.316;2023-04-06T07:41:37;20.80;;;14.45;;
21786;SDS011;11055;50.870;4.316;2023-04-06T07:44:03;21.52;;;13.27;;
21786;SDS011;11055;50.870;4.316;2023-04-06T07:46:29;22.33;;;14.05;;
21786;SDS011;11055;50.870;4.316;2023-04-06T07:48:56;19.40;;;13.30;;
21786;SDS011;11055;50.870;4.316;2023-04-06T07:51:22;17.42;;;11.88;;
21786;SDS011;11055;50.870;4.316;2023-04-06T07:53:49;18.92;;;12.65;;
21786;SDS011;11055;50.870;4.316;2023-04-06T07:56:15;15.07;;;10.95;;
21786;SDS011;11055;50.870;4.316;2023-04-06T07:58:41;15.23;;;11.10;;
21786;SDS011;11055;50.870;4.316;2023-04-06T08:01:07;15.20;;;10.40;;
21786;SDS011;11055;50.870;4.316;2023-04-06T08:03:33;15.70;;;10.05;;
21786;SDS011;11055;50.870;4.316;2023-04-06T08:06:02;15.80;;;9.77;;
21786;SDS011;11055;50.870;4.316;2023-04-06T08:08:28;13.38;;;9.45;;
21786;SDS011;11055;50.870;4.316;2023-04-06T08:10:54;15.25;;;9.68;;
21786;SDS011;11055;50.870;4.316;2023-04-06T08:13:19;13.88;;;9.25;;
21786;SDS011;11055;50.870;4.316;2023-04-06T08:15:46;15.27;;;9.98;;
21786;SDS011;11055;50.870;4.316;2023-04-06T08:18:11;16.85;;;10.38;;
21786;SDS011;11055;50.870;4.316;2023-04-06T08:20:39;18.27;;;11.60;;
21786;SDS011;11055;50.870;4.316;2023-04-06T08:23:04;13.32;;;9.48;;
21786;SDS011;11055;50.870;4.316;2023-04-06T08:25:31;13.95;;;9.55;;
21786;SDS011;11055;50.870;4.316;2023-04-06T08:27:58;13.15;;;9.80;;
21786;SDS011;11055;50.870;4.316;2023-04-06T08:30:24;15.50;;;9.68;;
21786;SDS011;11055;50.870;4.316;2023-04-06T08:32:50;13.68;;;9.68;;
21786;SDS011;11055;50.870;4.316;2023-04-06T08:35:16;13.55;;;8.98;;
21786;SDS011;11055;50.870;4.316;2023-04-06T08:37:41;14.45;;;9.00;;
21786;SDS011;11055;50.870;4.316;2023-04-06T08:40:07;15.82;;;9.90;;
21786;SDS011;11055;50.870;4.316;2023-04-06T08:42:33;14.00;;;9.13;;
21786;SDS011;11055;50.870;4.316;2023-04-06T08:45:07;14.23;;;9.95;;
21786;SDS011;11055;50.870;4.316;2023-04-06T08:47:34;14.95;;;9.25;;
21786;SDS011;11055;50.870;4.316;2023-04-06T08:50:02;12.65;;;9.55;;
21786;SDS011;11055;50.870;4.316;2023-04-06T08:52:29;16.83;;;9.40;;
21786;SDS011;11055;50.870;4.316;2023-04-06T08:54:58;12.02;;;8.13;;
21786;SDS011;11055;50.870;4.316;2023-04-06T08:57:24;13.48;;;8.82;;
21786;SDS011;11055;50.870;4.316;2023-04-06T08:59:51;12.57;;;8.35;;
21786;SDS011;11055;50.870;4.316;2023-04-06T09:02:18;12.60;;;8.93;;
21786;SDS011;11055;50.870;4.316;2023-04-06T09:04:46;13.20;;;9.55;;
21786;SDS011;11055;50.870;4.316;2023-04-06T09:07:14;12.82;;;9.20;;
21786;SDS011;11055;50.870;4.316;2023-04-06T09:09:41;13.60;;;9.90;;
21786;SDS011;11055;50.870;4.316;2023-04-06T09:12:21;14.55;;;9.75;;
21786;SDS011;11055;50.870;4.316;2023-04-06T09:14:58;12.95;;;9.65;;
21786;SDS011;11055;50.870;4.316;2023-04-06T09:17:25;15.32;;;11.13;;
21786;SDS011;11055;50.870;4.316;2023-04-06T09:19:57;16.95;;;11.32;;
21786;SDS011;11055;50.870;4.316;2023-04-06T09:22:23;13.43;;;10.55;;
21786;SDS011;11055;50.870;4.316;2023-04-06T09:24:53;15.93;;;11.13;;
21786;SDS011;11055;50.870;4.316;2023-04-06T09:27:32;16.45;;;10.93;;
21786;SDS011;11055;50.870;4.316;2023-04-06T09:30:03;14.55;;;10.70;;
21786;SDS011;11055;50.870;4.316;2023-04-06T09:32:30;14.20;;;10.93;;
21786;SDS011;11055;50.870;4.316;2023-04-06T09:35:06;16.50;;;11.30;;
21786;SDS011;11055;50.870;4.316;2023-04-06T09:37:34;15.82;;;11.20;;
21786;SDS011;11055;50.870;4.316;2023-04-06T09:40:04;17.45;;;10.60;;
21786;SDS011;11055;50.870;4.316;2023-04-06T09:42:30;12.52;;;10.10;;
21786;SDS011;11055;50.870;4.316;2023-04-06T09:44:56;13.57;;;9.68;;
21786;SDS011;11055;50.870;4.316;2023-04-06T09:47:22;13.13;;;9.55;;
21786;SDS011;11055;50.870;4.316;2023-04-06T09:49:49;14.60;;;9.43;;
21786;SDS011;11055;50.870;4.316;2023-04-06T09:52:20;11.30;;;9.65;;
21786;SDS011;11055;50.870;4.316;2023-04-06T09:54:49;12.73;;;8.98;;
21786;SDS011;11055;50.870;4.316;2023-04-06T10:00:04;15.20;;;9.95;;
21786;SDS011;11055;50.870;4.316;2023-04-06T10:02:45;14.38;;;9.85;;
21786;SDS011;11055;50.870;4.316;2023-04-06T10:08:05;13.55;;;9.65;;
21786;SDS011;11055;50.870;4.316;2023-04-06T10:10:34;10.38;;;8.95;;
21786;SDS011;11055;50.870;4.316;2023-04-06T10:13:00;12.73;;;9.60;;
21786;SDS011;11055;50.870;4.316;2023-04-06T10:15:27;13.13;;;9.48;;
21786;SDS011;11055;50.870;4.316;2023-04-06T10:17:54;13.93;;;10.07;;
21786;SDS011;11055;50.870;4.316;2023-04-06T10:20:23;12.95;;;10.23;;
21786;SDS011;11055;50.870;4.316;2023-04-06T10:25:51;16.20;;;9.38;;
21786;SDS011;11055;50.870;4.316;2023-04-06T10:28:21;12.07;;;8.63;;
21786;SDS011;11055;50.870;4.316;2023-04-06T10:30:47;12.65;;;9.65;;
21786;SDS011;11055;50.870;4.316;2023-04-06T10:33:17;11.38;;;9.27;;
21786;SDS011;11055;50.870;4.316;2023-04-06T10:35:45;15.65;;;11.05;;
21786;SDS011;11055;50.870;4.316;2023-04-06T10:38:11;12.38;;;9.75;;
21786;SDS011;11055;50.870;4.316;2023-04-06T10:40:45;11.65;;;9.50;;
21786;SDS011;11055;50.870;4.316;2023-04-06T10:45:56;12.57;;;9.30;;
21786;SDS011;11055;50.870;4.316;2023-04-06T10:48:25;12.27;;;10.05;;
21786;SDS011;11055;50.870;4.316;2023-04-06T10:51:09;15.43;;;11.13;;
21786;SDS011;11055;50.870;4.316;2023-04-06T10:53:35;14.60;;;10.73;;
21786;SDS011;11055;50.870;4.316;2023-04-06T10:56:01;13.85;;;10.48;;
21786;SDS011;11055;50.870;4.316;2023-04-06T10:58:28;14.27;;;10.27;;
21786;SDS011;11055;50.870;4.316;2023-04-06T11:00:55;14.23;;;10.38;;
21786;SDS011;11055;50.870;4.316;2023-04-06T11:03:21;17.05;;;11.25;;
21786;SDS011;11055;50.870;4.316;2023-04-06T11:05:48;13.85;;;10.77;;
21786;SDS011;11055;50.870;4.316;2023-04-06T11:08:25;13.15;;;10.95;;
21786;SDS011;11055;50.870;4.316;2023-04-06T11:11:03;13.55;;;9.70;;
21786;SDS011;11055;50.870;4.316;2023-04-06T11:16:12;11.18;;;9.27;;
21786;SDS011;11055;50.870;4.316;2023-04-06T11:18:46;13.98;;;10.57;;
21786;SDS011;11055;50.870;4.316;2023-04-06T11:21:15;14.68;;;10.80;;
21786;SDS011;11055;50.870;4.316;2023-04-06T11:23:41;14.82;;;10.75;;
21786;SDS011;11055;50.870;4.316;2023-04-06T11:26:11;17.08;;;11.65;;
21786;SDS011;11055;50.870;4.316;2023-04-06T11:28:39;13.35;;;10.38;;
21786;SDS011;11055;50.870;4.316;2023-04-06T11:31:07;14.05;;;10.80;;
21786;SDS011;11055;50.870;4.316;2023-04-06T11:33:37;13.27;;;10.18;;
21786;SDS011;11055;50.870;4.316;2023-04-06T11:36:03;15.25;;;10.38;;
21786;SDS011;11055;50.870;4.316;2023-04-06T11:38:30;13.10;;;10.90;;
21786;SDS011;11055;50.870;4.316;2023-04-06T11:40:57;13.13;;;10.15;;
21786;SDS011;11055;50.870;4.316;2023-04-06T11:43:29;12.93;;;10.52;;
21786;SDS011;11055;50.870;4.316;2023-04-06T11:46:03;13.77;;;10.15;;
21786;SDS011;11055;50.870;4.316;2023-04-06T11:48:29;11.77;;;10.07;;
21786;SDS011;11055;50.870;4.316;2023-04-06T11:50:56;13.18;;;11.23;;
21786;SDS011;11055;50.870;4.316;2023-04-06T11:53:29;12.93;;;10.70;;
21786;SDS011;11055;50.870;4.316;2023-04-06T11:55:55;13.93;;;10.52;;
21786;SDS011;11055;50.870;4.316;2023-04-06T11:58:22;13.80;;;11.48;;
21786;SDS011;11055;50.870;4.316;2023-04-06T12:00:48;15.95;;;11.32;;
21786;SDS011;11055;50.870;4.316;2023-04-06T12:03:13;14.90;;;11.73;;
21786;SDS011;11055;50.870;4.316;2023-04-06T12:05:39;11.93;;;10.55;;
21786;SDS011;11055;50.870;4.316;2023-04-06T12:08:05;13.90;;;12.05;;
21786;SDS011;11055;50.870;4.316;2023-04-06T12:10:31;14.88;;;11.80;;
21786;SDS011;11055;50.870;4.316;2023-04-06T12:12:57;16.67;;;12.13;;
21786;SDS011;11055;50.870;4.316;2023-04-06T12:15:23;15.43;;;12.48;;
21786;SDS011;11055;50.870;4.316;2023-04-06T12:17:48;14.45;;;11.27;;
21786;SDS011;11055;50.870;4.316;2023-04-06T12:20:17;18.67;;;11.40;;
21786;SDS011;11055;50.870;4.316;2023-04-06T12:22:42;15.25;;;12.02;;
21786;SDS011;11055;50.870;4.316;2023-04-06T12:25:08;15.27;;;11.82;;
21786;SDS011;11055;50.870;4.316;2023-04-06T12:27:34;14.15;;;10.90;;
21786;SDS011;11055;50.870;4.316;2023-04-06T12:30:00;14.50;;;10.65;;
21786;SDS011;11055;50.870;4.316;2023-04-06T12:32:26;14.20;;;11.73;;
21786;SDS011;11055;50.870;4.316;2023-04-06T12:34:52;14.43;;;10.90;;
21786;SDS011;11055;50.870;4.316;2023-04-06T12:37:18;13.63;;;10.65;;
21786;SDS011;11055;50.870;4.316;2023-04-06T12:39:43;17.00;;;12.23;;
21786;SDS011;11055;50.870;4.316;2023-04-06T12:42:10;14.32;;;11.20;;
21786;SDS011;11055;50.870;4.316;2023-04-06T12:44:37;13.57;;;10.82;;
21786;SDS011;11055;50.870;4.316;2023-04-06T12:47:03;12.82;;;11.52;;
21786;SDS011;11055;50.870;4.316;2023-04-06T12:49:30;14.15;;;11.25;;
21786;SDS011;11055;50.870;4.316;2023-04-06T12:51:56;12.43;;;10.57;;
21786;SDS011;11055;50.870;4.316;2023-04-06T12:54:22;15.20;;;12.32;;
21786;SDS011;11055;50.870;4.316;2023-04-06T12:56:48;18.73;;;14.07;;
21786;SDS011;11055;50.870;4.316;2023-04-06T12:59:13;14.85;;;12.05;;
21786;SDS011;11055;50.870;4.316;2023-04-06T13:01:39;14.45;;;11.93;;
21786;SDS011;11055;50.870;4.316;2023-04-06T13:04:05;14.82;;;11.68;;
21786;SDS011;11055;50.870;4.316;2023-04-06T13:06:31;13.50;;;11.52;;
21786;SDS011;11055;50.870;4.316;2023-04-06T13:08:57;17.30;;;12.15;;
21786;SDS011;11055;50.870;4.316;2023-04-06T13:11:22;16.35;;;12.63;;
21786;SDS011;11055;50.870;4.316;2023-04-06T13:13:49;14.57;;;12.35;;
21786;SDS011;11055;50.870;4.316;2023-04-06T13:16:15;13.13;;;11.48;;
21786;SDS011;11055;50.870;4.316;2023-04-06T13:18:41;14.15;;;11.10;;
21786;SDS011;11055;50.870;4.316;2023-04-06T13:21:07;16.33;;;12.35;;
21786;SDS011;11055;50.870;4.316;2023-04-06T13:23:33;14.93;;;11.57;;
21786;SDS011;11055;50.870;4.316;2023-04-06T13:26:00;14.30;;;12.80;;
21786;SDS011;11055;50.870;4.316;2023-04-06T13:28:28;17.08;;;12.27;;
21786;SDS011;11055;50.870;4.316;2023-04-06T13:30:54;17.52;;;13.10;;
21786;SDS011;11055;50.870;4.316;2023-04-06T13:33:20;15.45;;;11.82;;
21786;SDS011;11055;50.870;4.316;2023-04-06T13:35:46;16.63;;;12.45;;
21786;SDS011;11055;50.870;4.316;2023-04-06T13:38:13;16.27;;;12.00;;
21786;SDS011;11055;50.870;4.316;2023-04-06T13:40:39;14.98;;;13.02;;
21786;SDS011;11055;50.870;4.316;2023-04-06T13:43:06;17.02;;;13.48;;
21786;SDS011;11055;50.870;4.316;2023-04-06T13:45:34;15.48;;;13.15;;
21786;SDS011;11055;50.870;4.316;2023-04-06T13:48:00;15.50;;;12.75;;
21786;SDS011;11055;50.870;4.316;2023-04-06T13:50:26;17.33;;;13.13;;
21786;SDS011;11055;50.870;4.316;2023-04-06T13:52:52;16.95;;;12.73;;
21786;SDS011;11055;50.870;4.316;2023-04-06T13:55:18;16.30;;;12.93;;
21786;SDS011;11055;50.870;4.316;2023-04-06T13:57:43;16.33;;;13.60;;
21786;SDS011;11055;50.870;4.316;2023-04-06T14:00:09;16.45;;;12.90;;
21786;SDS011;11055;50.870;4.316;2023-04-06T14:02:37;15.18;;;13.10;;
21786;SDS011;11055;50.870;4.316;2023-04-06T14:05:04;16.70;;;13.10;;
21786;SDS011;11055;50.870;4.316;2023-04-06T14:07:30;14.63;;;13.00;;
21786;SDS011;11055;50.870;4.316;2023-04-06T14:09:55;16.98;;;14.30;;
21786;SDS011;11055;50.870;4.316;2023-04-06T14:12:21;15.70;;;13.30;;
21786;SDS011;11055;50.870;4.316;2023-04-06T14:14:47;15.10;;;13.48;;
21786;SDS011;11055;50.870;4.316;2023-04-06T14:17:12;17.80;;;14.50;;
21786;SDS011;11055;50.870;4.316;2023-04-06T14:19:38;20.27;;;15.57;;
21786;SDS011;11055;50.870;4.316;2023-04-06T14:22:06;16.70;;;14.40;;
21786;SDS011;11055;50.870;4.316;2023-04-06T14:24:31;16.75;;;14.30;;
21786;SDS011;11055;50.870;4.316;2023-04-06T14:26:57;16.60;;;14.80;;
21786;SDS011;11055;50.870;4.316;2023-04-06T14:29:24;15.98;;;14.25;;
21786;SDS011;11055;50.870;4.316;2023-04-06T14:31:49;18.83;;;15.20;;
21786;SDS011;11055;50.870;4.316;2023-04-06T14:34:15;16.20;;;14.38;;